createdAt,value
2018-01-13T00:02:03.626Z,69.47
2018-01-13T00:04:31.997Z,62.77
2018-01-13T00:06:59.633Z,54.90
2018-01-13T00:09:27.232Z,77.83
2018-01-13T00:11:54.881Z,62.30
2018-01-13T00:14:22.474Z,59.50
2018-01-13T00:16:50.969Z,73.47
2018-01-13T00:19:18.589Z,61.43
2018-01-13T00:21:46.187Z,70.67
2018-01-13T00:24:13.819Z,62.60
2018-01-13T00:26:41.423Z,61.87
2018-01-13T00:29:10.543Z,60.33
2018-01-13T00:31:38.909Z,59.67
2018-01-13T00:34:07.299Z,60.13
2018-01-13T00:36:34.889Z,46.70
2018-01-13T00:39:02.520Z,43.67
2018-01-13T00:41:30.913Z,40.50
2018-01-13T00:43:58.512Z,42.47
2018-01-13T00:46:26.215Z,37.10
2018-01-13T00:48:53.844Z,34.40
2018-01-13T00:51:21.512Z,30.90
2018-01-13T00:53:49.134Z,27.23
2018-01-13T00:56:17.504Z,28.10
2018-01-13T00:58:45.141Z,30.17
2018-01-13T01:01:12.740Z,28.53
2018-01-13T01:03:40.342Z,31.00
2018-01-13T01:06:08.744Z,31.17
2018-01-13T01:08:36.368Z,33.73
2018-01-13T01:11:05.626Z,32.07
2018-01-13T01:13:33.240Z,27.33
2018-01-13T01:16:00.842Z,28.70
2018-01-13T01:18:28.456Z,27.13
2018-01-13T01:20:56.071Z,33.73
2018-01-13T01:23:23.676Z,28.93
2018-01-13T01:25:51.260Z,31.30
2018-01-13T01:28:19.638Z,33.43
2018-01-13T01:30:48.011Z,30.47
2018-01-13T01:33:15.639Z,36.20
2018-01-13T01:35:43.241Z,27.70
2018-01-13T01:38:10.842Z,30.10
2018-01-13T01:40:39.325Z,25.80
2018-01-13T01:43:06.933Z,23.90
2018-01-13T01:45:35.457Z,29.27
2018-01-13T01:48:04.527Z,33.73
2018-01-13T01:50:32.141Z,33.67
2018-01-13T01:53:00.505Z,28.83
2018-01-13T01:55:29.705Z,28.90
2018-01-13T01:57:58.083Z,33.93
2018-01-13T02:00:25.715Z,31.67
2018-01-13T02:02:53.331Z,33.20
2018-01-13T02:05:20.915Z,26.10
2018-01-13T02:07:49.297Z,39.13
2018-01-13T02:10:17.689Z,46.83
2018-01-13T02:12:45.363Z,33.83
2018-01-13T02:15:12.976Z,37.40
2018-01-13T02:17:40.569Z,38.87
2018-01-13T02:20:08.931Z,37.97
2018-01-13T02:22:36.511Z,35.07
2018-01-13T02:25:04.124Z,31.10
2018-01-13T02:27:31.727Z,27.00
2018-01-13T02:30:01.212Z,43.33
2018-01-13T02:32:28.808Z,24.70
2018-01-13T02:34:57.168Z,26.43
2018-01-13T02:37:24.783Z,25.17
2018-01-13T02:39:53.172Z,23.47
2018-01-13T02:42:20.964Z,25.67
2018-01-13T02:44:48.558Z,32.60
2018-01-13T02:47:16.166Z,25.33
2018-01-13T02:49:44.540Z,20.07
2018-01-13T02:52:12.894Z,21.03
2018-01-13T02:54:40.726Z,22.33
2018-01-13T02:57:08.500Z,25.87
2018-01-13T02:59:36.118Z,21.70
2018-01-13T03:02:03.691Z,22.10
2018-01-13T03:04:32.076Z,24.93
2018-01-13T03:06:59.681Z,24.63
2018-01-13T03:09:27.401Z,22.03
2018-01-13T03:11:55.009Z,22.30
2018-01-13T03:14:22.614Z,24.80
2018-01-13T03:16:50.238Z,28.40
2018-01-13T03:19:17.842Z,28.70
2018-01-13T03:21:46.597Z,26.50
2018-01-13T03:24:14.218Z,20.80
2018-01-13T03:26:41.806Z,21.97
2018-01-13T03:29:10.187Z,22.73
2018-01-13T03:31:38.541Z,26.07
2018-01-13T03:34:07.665Z,24.70
2018-01-13T03:36:36.025Z,22.67
2018-01-13T03:39:04.390Z,25.67
2018-01-13T03:41:32.018Z,28.67
2018-01-13T03:43:59.623Z,25.60
2018-01-13T03:46:27.242Z,22.03
2018-01-13T03:48:54.954Z,26.60
2018-01-13T03:51:22.571Z,23.97
2018-01-13T03:53:50.901Z,22.27
2018-01-13T03:56:18.544Z,22.30
2018-01-13T03:58:46.150Z,26.43
2018-01-13T04:01:13.732Z,23.77
2018-01-13T04:03:41.324Z,28.70
2018-01-13T04:06:08.934Z,24.87
2018-01-13T04:08:36.552Z,24.77
2018-01-13T04:11:04.138Z,27.23
2018-01-13T04:13:31.732Z,27.00
2018-01-13T04:15:59.352Z,27.73
2018-01-13T04:18:26.932Z,27.03
2018-01-13T04:20:54.540Z,28.60
2018-01-13T04:23:22.889Z,28.77
2018-01-13T04:25:50.850Z,26.83
2018-01-13T04:28:18.457Z,27.10
2018-01-13T04:30:46.068Z,24.80
2018-01-13T04:33:13.689Z,26.20
2018-01-13T04:35:42.053Z,25.67
2018-01-13T04:38:09.679Z,31.93
2018-01-13T04:40:37.277Z,30.77
2018-01-13T04:43:04.893Z,27.90
2018-01-13T04:45:33.260Z,25.37
2018-01-13T04:48:00.893Z,25.63
2018-01-13T04:50:28.529Z,25.10
2018-01-13T04:52:56.127Z,29.70
2018-01-13T04:55:23.733Z,34.47
2018-01-13T04:57:52.104Z,28.57
2018-01-13T05:00:19.734Z,33.07
2018-01-13T05:02:47.321Z,23.97
2018-01-13T05:05:14.921Z,25.00
2018-01-13T05:07:43.389Z,26.80
2018-01-13T05:10:11.001Z,25.23
2018-01-13T05:12:38.623Z,29.37
2018-01-13T05:15:06.992Z,27.33
2018-01-13T05:17:34.685Z,31.40
2018-01-13T05:20:03.300Z,33.77
2018-01-13T05:25:05.820Z,28.03
2018-01-13T05:27:33.422Z,28.00
2018-01-13T05:30:02.518Z,31.73
2018-01-13T05:32:30.114Z,32.17
2018-01-13T05:34:57.722Z,27.43
2018-01-13T05:37:25.331Z,27.50
2018-01-13T05:39:54.090Z,28.47
2018-01-13T05:42:21.714Z,27.83
2018-01-13T05:44:49.294Z,28.20
2018-01-13T05:47:16.901Z,27.57
2018-01-13T05:49:46.106Z,25.97
2018-01-13T05:52:13.670Z,27.57
2018-01-13T05:54:42.822Z,27.40
2018-01-13T05:57:10.488Z,27.47
2018-01-13T05:59:38.118Z,29.97
2018-01-13T06:02:06.502Z,28.03
2018-01-13T06:04:34.873Z,28.50
2018-01-13T06:07:02.514Z,26.33
2018-01-13T06:09:30.122Z,30.53
2018-01-13T06:11:58.526Z,30.83
2018-01-13T06:14:26.113Z,23.60
2018-01-13T06:16:53.717Z,25.70
2018-01-13T06:19:22.837Z,27.23
2018-01-13T06:21:51.204Z,29.53
2018-01-13T06:24:18.814Z,29.27
2018-01-13T06:26:46.547Z,27.43
2018-01-13T06:29:14.930Z,26.97
2018-01-13T06:31:43.305Z,24.83
2018-01-13T06:34:11.191Z,29.50
2018-01-13T06:36:39.549Z,23.23
2018-01-13T06:39:07.145Z,26.53
2018-01-13T06:41:35.541Z,23.80
2018-01-13T06:44:03.139Z,22.10
2018-01-13T06:46:30.747Z,25.67
2018-01-13T06:48:59.099Z,24.87
2018-01-13T06:51:26.725Z,23.60
2018-01-13T06:53:54.301Z,21.57
2018-01-13T06:56:22.003Z,28.43
2018-01-13T06:58:51.135Z,20.40
2018-01-13T07:01:19.521Z,21.33
2018-01-13T07:03:47.895Z,20.40
2018-01-13T07:06:16.259Z,22.47
2018-01-13T07:08:44.651Z,16.37
2018-01-13T07:11:12.252Z,17.30
2018-01-13T07:13:40.023Z,26.77
2018-01-13T07:16:07.621Z,21.83
2018-01-13T07:18:35.221Z,18.30
2018-01-13T07:21:02.845Z,19.30
2018-01-13T07:23:30.468Z,15.10
2018-01-13T07:25:58.115Z,18.83
2018-01-13T07:28:25.714Z,18.80
2018-01-13T07:30:53.342Z,16.83
2018-01-13T07:33:21.698Z,21.07
2018-01-13T07:35:49.306Z,20.10
2018-01-13T07:38:17.700Z,19.23
2018-01-13T07:40:46.066Z,20.70
2018-01-13T07:43:14.574Z,17.20
2018-01-13T07:45:43.096Z,17.57
2018-01-13T07:48:10.714Z,20.23
2018-01-13T07:50:39.082Z,23.87
2018-01-13T07:53:06.759Z,19.90
2018-01-13T07:55:34.334Z,19.93
2018-01-13T07:58:02.690Z,20.43
2018-01-13T08:00:30.316Z,17.03
2018-01-13T08:02:57.914Z,20.50
2018-01-13T08:05:25.534Z,26.73
2018-01-13T08:07:53.136Z,17.37
2018-01-13T08:10:20.762Z,17.70
2018-01-13T08:12:48.386Z,16.97
2018-01-13T08:15:15.985Z,21.90
2018-01-13T08:17:43.627Z,23.93
2018-01-13T08:20:12.004Z,24.23
2018-01-13T08:22:39.629Z,36.40
2018-01-13T08:25:07.241Z,28.27
2018-01-13T08:27:35.621Z,52.60
2018-01-13T08:30:03.237Z,23.37
2018-01-13T08:32:30.833Z,25.93
2018-01-13T08:34:58.451Z,21.80
2018-01-13T08:37:26.061Z,19.37
2018-01-13T08:39:54.020Z,17.93
2018-01-13T08:42:21.625Z,22.00
2018-01-13T08:44:50.017Z,16.40
2018-01-13T08:47:18.421Z,27.33
2018-01-13T08:49:46.027Z,15.17
2018-01-13T08:52:13.665Z,17.80
2018-01-13T08:54:41.279Z,17.00
2018-01-13T08:57:09.672Z,16.03
2018-01-13T08:59:37.333Z,18.63
2018-01-13T09:02:05.471Z,18.50
2018-01-13T09:04:33.110Z,16.23
2018-01-13T09:07:00.713Z,33.23
2018-01-13T09:09:28.327Z,36.00
2018-01-13T09:11:56.742Z,41.30
2018-01-13T09:14:24.365Z,44.30
2018-01-13T09:16:51.985Z,21.10
2018-01-13T09:19:19.610Z,30.30
2018-01-13T09:21:48.008Z,28.03
2018-01-13T09:24:15.874Z,32.00
2018-01-13T09:26:44.255Z,31.03
2018-01-13T09:29:12.671Z,18.30
2018-01-13T09:31:40.292Z,19.37
2018-01-13T09:34:08.722Z,28.80
2018-01-13T09:36:36.336Z,42.37
2018-01-13T09:39:03.932Z,33.70
2018-01-13T09:41:31.960Z,38.40
2018-01-13T09:43:59.570Z,39.07
2018-01-13T09:46:27.200Z,29.60
2018-01-13T09:48:54.807Z,31.07
2018-01-13T09:51:22.406Z,40.37
2018-01-13T09:53:50.038Z,30.80
2018-01-13T09:56:17.728Z,24.70
2018-01-13T09:58:45.370Z,22.73
2018-01-13T10:01:12.998Z,20.17
2018-01-13T10:03:40.639Z,21.23
2018-01-13T10:06:08.267Z,20.30
2018-01-13T10:08:35.860Z,22.13
2018-01-13T10:11:03.553Z,22.63
2018-01-13T10:13:31.164Z,29.80
2018-01-13T10:15:58.807Z,29.00
2018-01-13T10:18:27.190Z,27.03
2018-01-13T10:20:55.570Z,34.67
2018-01-13T10:23:23.207Z,33.10
2018-01-13T10:25:50.827Z,32.77
2018-01-13T10:28:18.450Z,39.60
2018-01-13T10:30:46.995Z,48.80
2018-01-13T10:33:14.595Z,49.07
2018-01-13T10:35:42.199Z,34.83
2018-01-13T10:38:09.823Z,46.17
2018-01-13T10:40:37.454Z,34.63
2018-01-13T10:43:05.062Z,33.73
2018-01-13T10:45:32.674Z,49.77
2018-01-13T10:48:00.319Z,37.73
2018-01-13T10:50:28.695Z,40.40
2018-01-13T10:52:56.387Z,66.20
2018-01-13T10:55:24.772Z,84.77
2018-01-13T10:57:52.447Z,51.27
2018-01-13T11:00:20.063Z,56.97
2018-01-13T11:02:47.704Z,65.93
2018-01-13T11:05:15.315Z,42.37
2018-01-13T11:07:42.926Z,39.53
2018-01-13T11:10:10.554Z,48.47
2018-01-13T11:12:38.935Z,48.27
2018-01-13T11:15:07.318Z,52.50
2018-01-13T11:17:35.702Z,52.17
2018-01-13T11:20:04.272Z,47.03
2018-01-13T11:22:32.671Z,46.80
2018-01-13T11:25:01.082Z,41.73
2018-01-13T11:27:28.718Z,48.57
2018-01-13T11:29:57.146Z,44.47
2018-01-13T11:32:24.772Z,48.00
2018-01-13T11:34:53.155Z,51.63
2018-01-13T11:37:21.536Z,48.67
2018-01-13T11:39:49.944Z,40.00
2018-01-13T11:42:17.559Z,90.53
2018-01-13T11:44:45.168Z,54.47
2018-01-13T11:47:12.813Z,45.67
2018-01-13T11:49:40.454Z,40.97
2018-01-13T11:52:08.115Z,50.40
2018-01-13T11:54:35.739Z,52.30
2018-01-13T11:57:03.352Z,54.00
2018-01-13T11:59:30.997Z,48.17
2018-01-13T12:01:58.602Z,47.63
2018-01-13T12:04:26.294Z,52.93
2018-01-13T12:06:54.681Z,54.73
2018-01-13T12:09:22.319Z,48.47
2018-01-13T12:11:50.717Z,38.00
2018-01-13T12:14:19.106Z,50.10
2018-01-13T12:16:47.498Z,45.70
2018-01-13T12:19:15.115Z,39.83
2018-01-13T12:21:42.735Z,47.53
2018-01-13T12:24:10.331Z,49.10
2018-01-13T12:26:38.208Z,48.27
2018-01-13T12:29:05.855Z,53.73
2018-01-13T12:31:33.469Z,46.37
2018-01-13T12:34:02.610Z,53.03
2018-01-13T12:36:30.217Z,53.50
2018-01-13T12:38:57.831Z,52.97
2018-01-13T12:41:26.247Z,43.30
2018-01-13T12:43:53.907Z,48.60
2018-01-13T12:46:21.520Z,47.10
2018-01-13T12:48:49.306Z,40.17
2018-01-13T12:51:17.685Z,42.77
2018-01-13T12:53:46.076Z,52.87
2018-01-13T12:56:13.865Z,41.37
2018-01-13T12:58:41.498Z,44.37
2018-01-13T13:01:09.414Z,50.77
2018-01-13T13:03:37.032Z,46.67
2018-01-13T13:06:04.726Z,47.40
2018-01-13T13:08:32.346Z,42.73
2018-01-13T13:10:59.970Z,44.17
2018-01-13T13:13:27.598Z,47.63
2018-01-13T13:15:55.204Z,46.87
2018-01-13T13:18:22.829Z,45.70
2018-01-13T13:20:50.472Z,44.53
2018-01-13T13:23:18.140Z,41.70
2018-01-13T13:25:45.734Z,42.43
2018-01-13T13:28:14.112Z,46.43
2018-01-13T13:30:41.773Z,44.37
2018-01-13T13:33:10.166Z,46.47
2018-01-13T13:35:38.590Z,45.00
2018-01-13T13:38:06.254Z,47.00
2018-01-13T13:40:34.748Z,44.63
2018-01-13T13:43:02.363Z,39.37
2018-01-13T13:45:29.983Z,47.23
2018-01-13T13:47:57.782Z,42.47
2018-01-13T13:50:25.421Z,44.53
2018-01-13T13:52:53.059Z,46.03
2018-01-13T13:55:20.677Z,48.40
2018-01-13T13:57:48.329Z,36.17
2018-01-13T14:00:15.953Z,43.13
2018-01-13T14:02:44.310Z,45.87
2018-01-13T14:05:11.929Z,47.13
2018-01-13T14:07:39.616Z,40.20
2018-01-13T14:10:07.610Z,45.07
2018-01-13T14:12:35.236Z,43.87
2018-01-13T14:15:02.887Z,43.20
2018-01-13T14:17:30.528Z,45.97
2018-01-13T14:19:58.898Z,62.00
2018-01-13T14:22:26.548Z,39.20
2018-01-13T14:24:54.173Z,48.27
2018-01-13T14:27:21.806Z,43.70
2018-01-13T14:29:50.241Z,43.53
2018-01-13T14:32:17.944Z,42.50
2018-01-13T14:34:45.570Z,55.33
2018-01-13T14:37:13.195Z,42.07
2018-01-13T14:39:41.620Z,51.63
2018-01-13T14:42:09.245Z,42.00
2018-01-13T14:44:38.174Z,44.20
2018-01-13T14:47:05.802Z,66.03
2018-01-13T14:49:33.399Z,43.10
2018-01-13T14:52:01.102Z,44.10
2018-01-13T14:54:28.777Z,44.93
2018-01-13T14:56:56.546Z,45.17
2018-01-13T14:59:24.190Z,52.07
2018-01-13T15:01:52.237Z,46.43
2018-01-13T15:04:19.898Z,41.97
2018-01-13T15:06:47.520Z,50.20
2018-01-13T15:09:15.191Z,47.37
2018-01-13T15:11:42.816Z,46.73
2018-01-13T15:14:10.531Z,44.97
2018-01-13T15:16:38.248Z,43.40
2018-01-13T15:19:05.939Z,39.83
2018-01-13T15:21:33.618Z,43.23
2018-01-13T15:24:02.808Z,48.30
2018-01-13T15:26:30.469Z,49.00
2018-01-13T15:28:58.084Z,57.63
2018-01-13T15:31:25.726Z,48.77
2018-01-13T15:33:54.183Z,52.40
2018-01-13T15:36:21.935Z,46.03
2018-01-13T15:38:49.657Z,53.20
2018-01-13T15:41:17.369Z,53.90
2018-01-13T15:43:45.064Z,56.40
2018-01-13T15:46:13.425Z,59.20
2018-01-13T15:48:41.141Z,55.37
2018-01-13T15:51:14.671Z,65.10
2018-01-13T15:53:42.331Z,56.33
2018-01-13T15:56:10.821Z,69.07
2018-01-13T15:58:39.214Z,82.53
2018-01-13T16:01:07.641Z,56.03
2018-01-13T16:03:35.378Z,58.37
2018-01-13T16:06:03.052Z,61.77
2018-01-13T16:08:30.691Z,68.97
2018-01-13T16:10:59.220Z,73.47
2018-01-13T16:13:26.960Z,74.77
2018-01-13T16:15:54.669Z,62.97
2018-01-13T16:18:22.372Z,60.67
2018-01-13T16:20:50.786Z,103.57
2018-01-13T16:23:18.480Z,65.10
2018-01-13T16:25:46.090Z,101.03
2018-01-13T16:28:14.522Z,69.77
2018-01-13T16:30:42.203Z,67.83
2018-01-13T16:33:09.880Z,61.60
2018-01-13T16:35:37.582Z,82.97
2018-01-13T16:38:05.996Z,63.07
2018-01-13T16:40:33.665Z,63.17
2018-01-13T16:43:01.365Z,59.37
2018-01-13T16:45:28.992Z,68.20
2018-01-13T16:47:56.712Z,76.77
2018-01-13T16:50:24.395Z,66.40
2018-01-13T16:52:52.825Z,70.77
2018-01-13T16:55:20.446Z,68.13
2018-01-13T16:57:48.073Z,60.00
2018-01-13T17:00:15.729Z,70.40
2018-01-13T17:02:43.349Z,69.67
2018-01-13T17:05:11.781Z,65.50
2018-01-13T17:07:39.431Z,68.23
2018-01-13T17:10:07.065Z,67.53
2018-01-13T17:12:35.592Z,58.03
2018-01-13T17:15:04.164Z,65.47
2018-01-13T17:17:31.901Z,59.43
2018-01-13T17:20:00.279Z,64.33
2018-01-13T17:22:28.695Z,65.63
2018-01-13T17:24:56.361Z,61.07
2018-01-13T17:27:24.089Z,61.53
2018-01-13T17:29:51.719Z,60.87
2018-01-13T17:32:19.464Z,60.80
2018-01-13T17:34:47.079Z,63.47
2018-01-13T17:37:14.724Z,74.07
2018-01-13T17:39:42.339Z,57.60
2018-01-13T17:42:11.155Z,66.10
2018-01-13T17:44:38.880Z,64.10
2018-01-13T17:47:06.567Z,73.60
2018-01-13T17:49:35.013Z,61.50
2018-01-13T17:52:02.625Z,63.60
2018-01-13T17:54:30.319Z,53.23
2018-01-13T17:56:57.966Z,57.10
2018-01-13T17:59:25.586Z,67.13
2018-01-13T18:01:53.257Z,65.13
2018-01-13T18:04:20.930Z,62.90
2018-01-13T18:06:48.596Z,59.37
2018-01-13T18:09:16.273Z,54.90
2018-01-13T18:11:44.764Z,54.93
2018-01-13T18:14:13.246Z,57.70
2018-01-13T18:16:41.629Z,66.23
2018-01-13T18:19:10.052Z,59.83
2018-01-13T18:21:37.700Z,64.63
2018-01-13T18:24:06.114Z,58.67
2018-01-13T18:26:33.735Z,64.37
2018-01-13T18:29:02.192Z,58.97
2018-01-13T18:31:29.820Z,58.90
2018-01-13T18:33:57.482Z,58.97
2018-01-13T18:36:25.177Z,58.77
2018-01-13T18:38:53.753Z,60.37
2018-01-13T18:41:21.697Z,53.33
2018-01-13T18:43:49.319Z,58.87
2018-01-13T18:46:16.973Z,62.97
2018-01-13T18:48:44.654Z,61.37
2018-01-13T18:51:12.335Z,57.40
2018-01-13T18:53:40.819Z,60.60
2018-01-13T18:56:09.234Z,60.57
2018-01-13T18:58:36.945Z,55.03
2018-01-13T19:01:04.625Z,61.83
2018-01-13T19:03:32.452Z,56.70
2018-01-13T19:06:01.149Z,59.57
2018-01-13T19:08:28.979Z,66.90
2018-01-13T19:10:57.443Z,63.60
2018-01-13T19:13:25.139Z,48.17
2018-01-13T19:15:53.619Z,55.00
2018-01-13T19:18:22.057Z,62.10
2018-01-13T19:20:49.749Z,59.83
2018-01-13T19:23:17.447Z,66.73
2018-01-13T19:25:45.729Z,55.87
2018-01-13T19:28:14.248Z,54.03
2018-01-13T19:30:42.741Z,58.03
2018-01-13T19:33:10.433Z,47.97
2018-01-13T19:35:38.163Z,59.60
2018-01-13T19:38:05.926Z,46.60
2018-01-13T19:40:33.632Z,54.60
2018-01-13T19:43:01.681Z,55.03
2018-01-13T19:45:29.455Z,59.57
2018-01-13T19:47:57.672Z,60.00
2018-01-13T19:50:25.499Z,61.13
2018-01-13T19:52:53.231Z,63.80
2018-01-13T19:55:22.201Z,53.33
2018-01-13T19:57:49.938Z,56.83
2018-01-13T20:00:17.668Z,57.87
2018-01-13T20:02:46.313Z,61.20
2018-01-13T20:05:14.022Z,62.80
2018-01-13T20:07:43.180Z,55.57
2018-01-13T20:10:10.899Z,56.47
2018-01-13T20:12:40.340Z,58.73
2018-01-13T20:15:08.085Z,62.43
2018-01-13T20:17:36.102Z,69.10
2018-01-13T20:20:03.810Z,50.87
2018-01-13T20:22:32.260Z,70.30
2018-01-13T20:25:00.935Z,50.83
2018-01-13T20:27:28.699Z,56.87
2018-01-13T20:29:56.703Z,50.33
2018-01-13T20:32:24.428Z,51.07
2018-01-13T20:34:52.365Z,52.93
2018-01-13T20:37:21.166Z,58.37
2018-01-13T20:39:50.112Z,55.43
2018-01-13T20:42:17.795Z,55.97
2018-01-13T20:44:45.515Z,60.70
2018-01-13T20:47:13.854Z,58.27
2018-01-13T20:49:41.576Z,49.73
2018-01-13T20:52:09.251Z,52.37
2018-01-13T20:54:37.013Z,49.63
2018-01-13T20:57:04.724Z,49.73
2018-01-13T20:59:32.551Z,55.13
2018-01-13T21:02:00.731Z,59.03
2018-01-13T21:04:28.397Z,48.33
2018-01-13T21:06:56.153Z,54.90
2018-01-13T21:09:24.589Z,54.10
2018-01-13T21:11:53.140Z,51.57
2018-01-13T21:14:21.669Z,42.60
2018-01-13T21:16:50.449Z,49.10
2018-01-13T21:19:18.497Z,50.97
2018-01-13T21:21:46.192Z,64.20
2018-01-13T21:24:13.892Z,64.63
2018-01-13T21:26:42.359Z,61.73
2018-01-13T21:29:10.842Z,51.17
2018-01-13T21:31:38.516Z,51.20
2018-01-13T21:34:06.232Z,51.67
2018-01-13T21:36:33.952Z,53.17
2018-01-13T21:39:03.771Z,48.80
2018-01-13T21:41:31.635Z,46.63
2018-01-13T21:43:59.320Z,56.67
2018-01-13T21:46:27.786Z,50.23
2018-01-13T21:48:57.008Z,47.33
2018-01-13T21:51:25.445Z,48.43
2018-01-13T21:53:53.948Z,58.40
2018-01-13T21:56:21.613Z,39.40
2018-01-13T21:58:49.292Z,50.17
2018-01-13T22:01:17.125Z,51.07
2018-01-13T22:03:44.904Z,48.83
2018-01-13T22:06:12.566Z,42.43
2018-01-13T22:08:40.252Z,41.20
2018-01-13T22:11:08.056Z,45.60
2018-01-13T22:13:36.496Z,44.17
2018-01-13T22:16:04.227Z,47.17
2018-01-13T22:18:31.939Z,45.07
2018-01-13T22:20:59.713Z,54.93
2018-01-13T22:23:27.383Z,47.23
2018-01-13T22:25:55.014Z,44.20
2018-01-13T22:28:22.665Z,50.27
2018-01-13T22:30:51.053Z,44.50
2018-01-13T22:33:19.467Z,46.93
2018-01-13T22:35:47.177Z,45.80
2018-01-13T22:38:15.586Z,44.97
2018-01-13T22:40:44.005Z,48.10
2018-01-13T22:43:11.629Z,44.67
2018-01-13T22:45:40.051Z,47.27
2018-01-13T22:48:07.699Z,45.13
2018-01-13T22:50:35.377Z,52.57
2018-01-13T22:53:03.021Z,41.53
2018-01-13T22:55:31.439Z,53.37
2018-01-13T22:57:59.115Z,44.77
2018-01-13T23:00:42.017Z,48.50
2018-01-13T23:03:09.695Z,50.70
2018-01-13T23:05:37.333Z,44.03
2018-01-13T23:08:04.963Z,41.97
2018-01-13T23:10:32.815Z,47.70
2018-01-13T23:13:01.215Z,49.20
2018-01-13T23:15:30.004Z,46.50
2018-01-13T23:17:57.610Z,45.30
2018-01-13T23:20:25.245Z,50.77
2018-01-13T23:22:53.707Z,42.40
2018-01-13T23:25:21.412Z,41.30
2018-01-13T23:27:49.810Z,42.37
2018-01-13T23:30:17.420Z,43.03
2018-01-13T23:32:45.138Z,43.07
2018-01-13T23:35:12.738Z,43.27
2018-01-13T23:37:40.354Z,37.83
2018-01-13T23:40:08.754Z,41.00
2018-01-13T23:42:36.360Z,38.50
2018-01-13T23:45:03.973Z,36.87
2018-01-13T23:47:32.339Z,45.93
2018-01-13T23:50:00.836Z,34.10
2018-01-13T23:52:29.201Z,38.10
2018-01-13T23:54:57.558Z,40.57
2018-01-13T23:57:25.181Z,39.00
2018-01-13T23:59:53.617Z,43.30
